»·PEaware :: N6182G KPOC-MMES

N6182G :: KPOC-MMES

FLIGHT INFORMATION

Flight Status: Arrived
Operator: Privately registered:
United States
More flights under this callsign
Pilot: Matthew M. (8235)
Aircraft: CESSNA 182 SKYLANE
(C182)
More flights by this aircraft type
Origin: KPOC Brackett
United States
Destination: MMES Ensenada Intl
Mexico
More flights between these airports :: More routes between these airports
Route: +
File this flight plan on PilotEdge
Remarks:
Altitude:
(Current/Filed)
3,500ft
Speed:
(Current/Filed)
120kts
Departed: 31-Jul-20 10:40 AM
Arrived: 31-Jul-20 11:57 AM
Distance/Time
Traveled:
150nm/1:17
Distance/Time
To Go:
Arrived

Flight Plot

Page will automatically refresh every two minutes.


Map Options




Map Legend


Flown Route
Filed Route
Departure Airport
Arrival Airport
Navaid (VOR, NDB)
Fix

Horizontal Profiles

Position Reports

Time Latitude Longitude Heading Altitude Ground
Speed
31-Jul-20 10:32 34.089003 -117.777843 182 1014ft 0kts
31-Jul-20 10:33 34.089003 -117.777843 182 1014ft 0kts
31-Jul-20 10:34 34.089003 -117.777843 182 1014ft 0kts
31-Jul-20 10:35 34.088948 -117.777854 195 1014ft 5kts
31-Jul-20 10:36 34.090308 -117.777804 96 1014ft 17kts
31-Jul-20 10:37 34.090684 -117.774858 4 1014ft 0kts
31-Jul-20 10:38 34.090687 -117.774858 4 1014ft 0kts
31-Jul-20 10:39 34.091418 -117.784243 271 1091ft 67kts
31-Jul-20 10:40 34.080969 -117.806276 223 1695ft 86kts
31-Jul-20 10:41 34.055220 -117.815752 190 2226ft 110kts
31-Jul-20 10:42 34.023276 -117.822564 190 2727ft 120kts
31-Jul-20 10:43 33.988089 -117.832286 192 3229ft 141kts
31-Jul-20 10:44 33.952829 -117.841190 193 3973ft 118kts
31-Jul-20 10:45 33.922176 -117.849337 195 4596ft 119kts
31-Jul-20 10:46 33.886859 -117.859165 210 4605ft 133kts
31-Jul-20 10:47 33.856574 -117.886481 219 4600ft 141kts
31-Jul-20 10:48 33.839134 -117.927764 249 4601ft 148kts
31-Jul-20 10:49 33.824108 -117.971954 249 4592ft 136kts
31-Jul-20 10:50 33.808572 -118.014570 244 4614ft 148kts
31-Jul-20 10:51 33.789601 -118.058725 242 4608ft 151kts
31-Jul-20 10:52 33.758140 -118.089438 219 4599ft 142kts
31-Jul-20 10:53 33.722937 -118.106325 162 4819ft 146kts
31-Jul-20 10:54 33.693379 -118.077833 139 5300ft 125kts
31-Jul-20 10:55 33.667934 -118.049242 131 5520ft 134kts
31-Jul-20 10:56 33.643743 -118.012577 129 5512ft 143kts
31-Jul-20 10:57 33.620084 -117.973275 125 5509ft 146kts
31-Jul-20 10:58 33.596723 -117.933218 125 5507ft 146kts
31-Jul-20 10:59 33.573347 -117.893156 125 5506ft 146kts
31-Jul-20 11:00 33.550032 -117.853300 125 5508ft 146kts
31-Jul-20 11:01 33.525211 -117.814385 133 5509ft 146kts
31-Jul-20 11:02 33.497010 -117.779047 134 5510ft 147kts
31-Jul-20 11:03 33.468703 -117.743486 134 5512ft 147kts
31-Jul-20 11:04 33.440315 -117.707921 134 5514ft 147kts
31-Jul-20 11:05 33.411817 -117.672474 134 5512ft 146kts
31-Jul-20 11:06 33.383544 -117.637455 134 5506ft 146kts
31-Jul-20 11:07 33.355094 -117.602357 134 5506ft 146kts
31-Jul-20 11:08 33.326509 -117.567285 134 5508ft 147kts
31-Jul-20 11:09 33.296401 -117.532717 141 5228ft 150kts
31-Jul-20 11:10 33.264962 -117.501745 140 4687ft 143kts
31-Jul-20 11:11 33.233044 -117.474066 144 4173ft 141kts
31-Jul-20 11:12 33.201088 -117.447536 144 3674ft 139kts
31-Jul-20 11:13 33.170789 -117.422774 144 3517ft 120kts
31-Jul-20 11:14 33.144507 -117.401012 144 3516ft 111kts
31-Jul-20 11:15 33.119561 -117.379976 144 3521ft 113kts
31-Jul-20 11:16 33.088593 -117.359710 152 3528ft 136kts
31-Jul-20 11:17 33.054237 -117.338487 152 3521ft 140kts
31-Jul-20 11:18 33.018195 -117.319711 158 3521ft 141kts
31-Jul-20 11:19 32.982233 -117.302750 158 3520ft 142kts
31-Jul-20 11:20 32.945379 -117.285449 159 3520ft 142kts
31-Jul-20 11:21 32.908667 -117.268216 158 3523ft 142kts
31-Jul-20 11:22 32.871736 -117.250879 158 3529ft 142kts
31-Jul-20 11:23 32.833161 -117.232947 159 3518ft 152kts
31-Jul-20 11:24 32.794659 -117.216202 163 3513ft 144kts
31-Jul-20 11:25 32.754798 -117.201151 161 3536ft 157kts
31-Jul-20 11:26 32.712804 -117.186945 163 3523ft 159kts
31-Jul-20 11:27 32.675803 -117.162707 149 3513ft 147kts
31-Jul-20 11:28 32.642262 -117.136242 144 3516ft 143kts
31-Jul-20 11:30 32.609678 -117.109511 144 3524ft 143kts
31-Jul-20 11:31 32.576815 -117.081817 130 3519ft 143kts
31-Jul-20 11:32 32.579593 -117.035946 74 3532ft 152kts
31-Jul-20 11:33 32.568402 -116.992204 140 3523ft 143kts
31-Jul-20 11:34 32.532328 -116.974137 179 3561ft 153kts
31-Jul-20 11:35 32.489678 -116.975335 184 3552ft 155kts
31-Jul-20 11:36 32.448468 -116.978717 184 3534ft 144kts
31-Jul-20 11:37 32.406860 -116.982156 184 3553ft 158kts
31-Jul-20 11:38 32.364283 -116.985596 184 3537ft 152kts
31-Jul-20 11:39 32.322041 -116.983945 174 3546ft 154kts
31-Jul-20 11:40 32.281051 -116.975743 168 3539ft 145kts
31-Jul-20 11:41 32.241232 -116.963331 164 3559ft 151kts
31-Jul-20 11:42 32.201715 -116.950565 164 3553ft 144kts
31-Jul-20 11:43 32.163245 -116.938211 164 3558ft 143kts
31-Jul-20 11:43 32.131716 -116.926501 153 3562ft 142kts
31-Jul-20 11:45 32.089698 -116.903581 154 3560ft 142kts
31-Jul-20 11:46 32.053620 -116.883895 155 3561ft 142kts
31-Jul-20 11:46 32.022258 -116.866801 155 3566ft 156kts
31-Jul-20 11:47 31.982857 -116.845372 153 3562ft 158kts
31-Jul-20 11:49 31.942801 -116.812457 140 3556ft 143kts
31-Jul-20 11:50 31.913705 -116.781116 135 3560ft 140kts
31-Jul-20 11:50 31.889919 -116.755055 135 3562ft 140kts
31-Jul-20 11:51 31.862932 -116.720690 129 3192ft 146kts
31-Jul-20 11:53 31.838307 -116.673517 118 2421ft 140kts
31-Jul-20 11:53 31.819504 -116.644719 128 1608ft 124kts
31-Jul-20 11:54 31.815973 -116.616182 350 901ft 101kts
31-Jul-20 11:55 31.806328 -116.619440 142 391ft 80kts
31-Jul-20 11:56 31.797194 -116.605696 13 69ft 7kts
31-Jul-20 11:57 31.797861 -116.598487 91 69ft 13kts
31-Jul-20 11:58 31.798796 -116.597833 97 69ft 0kts
31-Jul-20 11:59 31.798796 -116.597833 97 69ft 0kts
31-Jul-20 12:00 31.798796 -116.597833 97 69ft 0kts
31-Jul-20 12:01 31.798796 -116.597833 97 69ft 0kts
31-Jul-20 12:02 31.798796 -116.597833 97 69ft 0kts
31-Jul-20 12:03 31.798796 -116.597833 97 69ft 0kts

Navigation Log

Ident Type
Flight plan parsing failed, navigation log unavailable